createdAt,value
2018-08-08T00:00:34.901Z,974.89
2018-08-08T00:01:34.831Z,974.78
2018-08-08T00:02:34.763Z,974.79
2018-08-08T00:03:34.695Z,974.78
2018-08-08T00:04:34.622Z,974.77
2018-08-08T00:05:34.558Z,974.79
2018-08-08T00:06:34.486Z,974.79
2018-08-08T00:07:34.415Z,974.73
2018-08-08T00:08:34.345Z,974.72
2018-08-08T00:09:34.278Z,974.66
2018-08-08T00:10:34.208Z,974.66
2018-08-08T00:11:34.143Z,974.60
2018-08-08T00:12:34.066Z,974.58
2018-08-08T00:13:34.001Z,974.54
2018-08-08T00:14:33.938Z,974.51
2018-08-08T00:15:33.860Z,974.50
2018-08-08T00:16:33.795Z,974.45
2018-08-08T00:17:33.721Z,974.44
2018-08-08T00:18:33.657Z,974.43
2018-08-08T00:19:33.589Z,974.42
2018-08-08T00:20:33.517Z,974.39
2018-08-08T00:21:33.445Z,974.38
2018-08-08T00:22:33.388Z,974.37
2018-08-08T00:23:33.313Z,974.35
2018-08-08T00:24:33.241Z,974.37
2018-08-08T00:25:33.169Z,974.34
2018-08-08T00:26:33.097Z,974.34
2018-08-08T00:27:33.036Z,974.29
2018-08-08T00:28:32.966Z,974.24
2018-08-08T00:29:32.895Z,974.20
2018-08-08T00:30:32.831Z,974.18
2018-08-08T00:31:32.756Z,974.21
2018-08-08T00:32:32.680Z,974.19
2018-08-08T00:33:32.611Z,974.17
2018-08-08T00:34:32.553Z,974.15
2018-08-08T00:35:32.473Z,974.13
2018-08-08T00:36:32.403Z,974.14
2018-08-08T00:37:32.337Z,974.18
2018-08-08T00:38:32.269Z,974.18
2018-08-08T00:39:32.200Z,974.17
2018-08-08T00:40:32.126Z,974.20
2018-08-08T00:41:32.060Z,974.18
2018-08-08T00:42:31.993Z,974.23
2018-08-08T00:43:31.918Z,974.22
2018-08-08T00:44:31.852Z,974.23
2018-08-08T00:47:03.359Z,974.20
2018-08-08T00:48:03.240Z,974.23
2018-08-08T00:50:07.106Z,974.27
2018-08-08T00:51:06.987Z,974.28
2018-08-08T00:53:10.813Z,974.33
2018-08-08T00:54:10.740Z,974.30
2018-08-08T00:56:14.606Z,974.28
2018-08-08T00:57:14.494Z,974.25
2018-08-08T00:58:14.430Z,974.20
2018-08-08T00:59:14.355Z,974.20
2018-08-08T01:00:14.280Z,974.16
2018-08-08T01:01:14.217Z,974.19
2018-08-08T01:02:14.142Z,974.19
2018-08-08T01:03:14.070Z,974.16
2018-08-08T01:04:14.002Z,974.12
2018-08-08T01:05:13.929Z,974.15
2018-08-08T01:06:13.871Z,974.15
2018-08-08T01:07:13.794Z,974.14
2018-08-08T01:08:13.739Z,974.13
2018-08-08T01:09:13.657Z,974.11
2018-08-08T01:10:13.583Z,974.12
2018-08-08T01:11:13.521Z,974.13
2018-08-08T01:12:13.446Z,974.12
2018-08-08T01:13:13.374Z,974.13
2018-08-08T01:14:13.305Z,974.15
2018-08-08T01:15:13.236Z,974.18
2018-08-08T01:16:13.163Z,974.13
2018-08-08T01:17:13.097Z,974.15
2018-08-08T01:18:13.037Z,974.12
2018-08-08T01:19:12.960Z,974.10
2018-08-08T01:20:12.882Z,974.14
2018-08-08T01:21:12.823Z,974.09
2018-08-08T01:22:12.743Z,974.09
2018-08-08T01:23:12.677Z,974.11
2018-08-08T01:24:12.637Z,974.13
2018-08-08T01:25:12.546Z,974.10
2018-08-08T01:26:12.463Z,974.09
2018-08-08T01:27:12.394Z,974.11
2018-08-08T01:28:12.324Z,974.13
2018-08-08T01:29:12.258Z,974.14
2018-08-08T01:30:12.183Z,974.16
2018-08-08T01:31:12.114Z,974.16
2018-08-08T01:32:12.043Z,974.18
2018-08-08T01:33:11.978Z,974.18
2018-08-08T01:34:11.909Z,974.17
2018-08-08T01:35:11.839Z,974.21
2018-08-08T01:36:11.763Z,974.21
2018-08-08T01:37:11.693Z,974.21
2018-08-08T01:38:11.622Z,974.21
2018-08-08T01:39:11.559Z,974.19
2018-08-08T01:40:11.486Z,974.17
2018-08-08T01:41:11.414Z,974.16
2018-08-08T01:42:11.344Z,974.18
2018-08-08T01:43:11.283Z,974.14
2018-08-08T01:44:11.201Z,974.20
2018-08-08T01:45:11.133Z,974.22
2018-08-08T01:46:11.067Z,974.24
2018-08-08T01:47:10.992Z,974.28
2018-08-08T01:48:10.925Z,974.28
2018-08-08T01:49:10.862Z,974.30
2018-08-08T01:50:10.780Z,974.30
2018-08-08T01:51:10.715Z,974.28
2018-08-08T01:52:10.641Z,974.28
2018-08-08T01:53:10.584Z,974.24
2018-08-08T01:54:10.505Z,974.28
2018-08-08T01:55:10.435Z,974.27
2018-08-08T01:56:10.358Z,974.27
2018-08-08T01:57:10.290Z,974.27
2018-08-08T01:58:10.219Z,974.30
2018-08-08T01:59:10.151Z,974.33
2018-08-08T02:00:10.081Z,974.33
2018-08-08T02:01:10.009Z,974.31
2018-08-08T02:02:09.946Z,974.33
2018-08-08T02:03:09.865Z,974.32
2018-08-08T02:04:09.795Z,974.31
2018-08-08T02:05:09.733Z,974.30
2018-08-08T02:06:09.654Z,974.32
2018-08-08T02:07:09.584Z,974.32
2018-08-08T02:08:09.515Z,974.33
2018-08-08T02:09:09.442Z,974.32
2018-08-08T02:10:09.371Z,974.29
2018-08-08T02:11:09.300Z,974.29
2018-08-08T02:12:09.231Z,974.30
2018-08-08T02:13:09.159Z,974.30
2018-08-08T02:14:09.090Z,974.27
2018-08-08T02:15:09.019Z,974.25
2018-08-08T02:16:08.948Z,974.25
2018-08-08T02:17:08.885Z,974.26
2018-08-08T02:18:08.809Z,974.29
2018-08-08T02:19:08.745Z,974.30
2018-08-08T02:20:08.664Z,974.31
2018-08-08T02:21:08.596Z,974.35
2018-08-08T02:22:08.530Z,974.37
2018-08-08T02:23:08.456Z,974.33
2018-08-08T02:24:08.385Z,974.34
2018-08-08T02:25:08.315Z,974.34
2018-08-08T02:26:08.244Z,974.30
2018-08-08T02:27:08.173Z,974.28
2018-08-08T02:28:08.100Z,974.30
2018-08-08T02:29:08.029Z,974.30
2018-08-08T02:30:07.961Z,974.25
2018-08-08T02:31:07.888Z,974.27
2018-08-08T02:32:07.817Z,974.27
2018-08-08T02:33:07.746Z,974.23
2018-08-08T02:34:07.676Z,974.27
2018-08-08T02:35:07.607Z,974.30
2018-08-08T02:36:07.548Z,974.28
2018-08-08T02:37:07.522Z,974.34
2018-08-08T02:38:07.396Z,974.39
2018-08-08T02:39:07.330Z,974.40
2018-08-08T02:40:07.253Z,974.40
2018-08-08T02:41:07.188Z,974.45
2018-08-08T02:42:07.113Z,974.43
2018-08-08T02:43:07.047Z,974.44
2018-08-08T02:44:06.970Z,974.43
2018-08-08T02:45:06.904Z,974.46
2018-08-08T02:46:06.833Z,974.50
2018-08-08T02:47:06.760Z,974.48
2018-08-08T02:48:06.687Z,974.55
2018-08-08T02:49:06.627Z,974.57
2018-08-08T02:50:06.547Z,974.57
2018-08-08T02:51:06.476Z,974.58
2018-08-08T02:52:06.403Z,974.57
2018-08-08T02:53:06.336Z,974.56
2018-08-08T02:54:06.264Z,974.54
2018-08-08T02:55:06.194Z,974.48
2018-08-08T02:56:06.125Z,974.50
2018-08-08T02:57:06.050Z,974.49
2018-08-08T02:58:05.978Z,974.45
2018-08-08T02:59:05.907Z,974.44
2018-08-08T03:00:05.837Z,974.43
2018-08-08T03:01:05.767Z,974.46
2018-08-08T03:02:05.699Z,974.49
2018-08-08T03:03:05.649Z,974.46
2018-08-08T03:04:05.557Z,974.47
2018-08-08T03:05:05.485Z,974.47
2018-08-08T03:06:05.413Z,974.52
2018-08-08T03:07:05.348Z,974.53
2018-08-08T03:08:05.274Z,974.57
2018-08-08T03:09:05.203Z,974.57
2018-08-08T03:10:05.134Z,974.56
2018-08-08T03:11:05.066Z,974.56
2018-08-08T03:12:04.995Z,974.58
2018-08-08T03:13:04.918Z,974.63
2018-08-08T03:14:04.851Z,974.64
2018-08-08T03:15:04.776Z,974.68
2018-08-08T03:16:04.710Z,974.71
2018-08-08T03:17:04.635Z,974.75
2018-08-08T03:18:04.563Z,974.75
2018-08-08T03:19:04.491Z,974.79
2018-08-08T03:20:04.424Z,974.80
2018-08-08T03:21:04.350Z,974.79
2018-08-08T03:22:04.279Z,974.83
2018-08-08T03:23:04.207Z,974.82
2018-08-08T03:24:04.137Z,974.81
2018-08-08T03:25:04.063Z,974.82
2018-08-08T03:26:04.022Z,974.83
2018-08-08T03:27:03.922Z,974.85
2018-08-08T03:28:03.853Z,974.87
2018-08-08T03:29:03.781Z,974.87
2018-08-08T03:30:03.712Z,974.87
2018-08-08T03:31:03.644Z,974.82
2018-08-08T03:32:03.575Z,974.83
2018-08-08T03:33:03.501Z,974.84
2018-08-08T03:34:03.433Z,974.85
2018-08-08T03:35:03.359Z,974.82
2018-08-08T03:36:03.288Z,974.84
2018-08-08T03:37:03.214Z,974.84
2018-08-08T03:38:03.151Z,974.87
2018-08-08T03:39:03.077Z,974.88
2018-08-08T03:40:02.999Z,974.88
2018-08-08T03:41:02.927Z,974.87
2018-08-08T03:42:02.863Z,974.85
2018-08-08T03:43:02.786Z,974.90
2018-08-08T03:44:02.716Z,974.89
2018-08-08T03:45:02.654Z,974.92
2018-08-08T03:46:02.570Z,974.91
2018-08-08T03:47:02.501Z,974.91
2018-08-08T03:48:02.439Z,974.95
2018-08-08T03:49:02.362Z,974.95
2018-08-08T03:50:02.288Z,974.95
2018-08-08T03:51:02.221Z,974.95
2018-08-08T03:52:02.150Z,974.96
2018-08-08T03:53:02.073Z,974.99
2018-08-08T03:54:02.006Z,974.97
2018-08-08T03:55:01.955Z,974.99
2018-08-08T03:56:01.921Z,974.99
2018-08-08T03:57:01.795Z,975.00
2018-08-08T03:58:01.719Z,974.96
2018-08-08T03:59:01.752Z,974.99
2018-08-08T04:00:01.577Z,974.99
2018-08-08T04:01:01.522Z,975.01
2018-08-08T04:02:01.449Z,975.05
2018-08-08T04:03:01.372Z,975.04
2018-08-08T04:04:01.292Z,975.13
2018-08-08T04:05:01.221Z,975.12
2018-08-08T04:06:01.155Z,975.15
2018-08-08T04:07:01.095Z,975.12
2018-08-08T04:08:01.010Z,975.12
2018-08-08T04:09:00.937Z,975.10
2018-08-08T04:10:00.867Z,975.11
2018-08-08T04:11:00.793Z,975.09
2018-08-08T04:12:00.782Z,975.09
2018-08-08T04:13:00.654Z,975.12
2018-08-08T04:14:00.597Z,975.15
2018-08-08T04:15:00.516Z,975.17
2018-08-08T04:16:00.447Z,975.22
2018-08-08T04:17:00.381Z,975.18
2018-08-08T04:18:00.294Z,975.17
2018-08-08T04:19:00.229Z,975.23
2018-08-08T04:20:00.164Z,975.25
2018-08-08T04:21:00.082Z,975.26
2018-08-08T04:22:00.012Z,975.29
2018-08-08T04:22:59.940Z,975.31
2018-08-08T04:23:59.873Z,975.33
2018-08-08T04:24:59.796Z,975.32
2018-08-08T04:25:59.726Z,975.33
2018-08-08T04:26:59.654Z,975.29
2018-08-08T04:27:59.588Z,975.33
2018-08-08T04:28:59.517Z,975.35
2018-08-08T04:29:59.446Z,975.33
2018-08-08T04:30:59.406Z,975.35
2018-08-08T04:31:59.296Z,975.38
2018-08-08T04:32:59.231Z,975.40
2018-08-08T04:33:59.154Z,975.40
2018-08-08T04:34:59.083Z,975.39
2018-08-08T04:35:59.011Z,975.36
2018-08-08T04:36:58.941Z,975.39
2018-08-08T04:37:58.869Z,975.36
2018-08-08T04:38:58.797Z,975.35
2018-08-08T04:39:58.728Z,975.40
2018-08-08T04:40:58.671Z,975.42
2018-08-08T04:41:58.583Z,975.43
2018-08-08T04:42:58.517Z,975.42
2018-08-08T04:43:58.442Z,975.43
2018-08-08T04:44:58.371Z,975.46
2018-08-08T04:45:58.322Z,975.46
2018-08-08T04:46:58.245Z,975.45
2018-08-08T04:47:58.162Z,975.43
2018-08-08T04:48:58.094Z,975.45
2018-08-08T04:49:58.034Z,975.44
2018-08-08T04:50:57.967Z,975.44
2018-08-08T04:51:57.875Z,975.44
2018-08-08T04:52:57.809Z,975.43
2018-08-08T04:53:57.736Z,975.47
2018-08-08T04:54:57.666Z,975.44
2018-08-08T04:55:57.595Z,975.46
2018-08-08T04:56:57.522Z,975.46
2018-08-08T04:57:57.453Z,975.49
2018-08-08T04:58:57.399Z,975.48
2018-08-08T04:59:57.304Z,975.50
2018-08-08T05:00:57.234Z,975.46
2018-08-08T05:01:57.162Z,975.42
2018-08-08T05:02:57.105Z,975.45
2018-08-08T05:03:57.024Z,975.48
2018-08-08T05:04:56.948Z,975.48
2018-08-08T05:05:56.917Z,975.51
2018-08-08T05:06:56.845Z,975.49
2018-08-08T05:07:56.768Z,975.44
2018-08-08T05:08:56.671Z,975.43
2018-08-08T05:09:56.650Z,975.45
2018-08-08T05:10:56.524Z,975.41
2018-08-08T05:11:57.271Z,975.40
2018-08-08T05:12:56.397Z,975.39
2018-08-08T05:13:56.334Z,975.41
2018-08-08T05:14:56.244Z,975.44
2018-08-08T05:15:56.168Z,975.41
2018-08-08T05:16:56.098Z,975.46
2018-08-08T05:17:56.037Z,975.43
2018-08-08T05:18:55.956Z,975.46
2018-08-08T05:19:55.914Z,975.47
2018-08-08T05:20:55.843Z,975.49
2018-08-08T05:21:55.745Z,975.48
2018-08-08T05:22:55.675Z,975.51
2018-08-08T05:23:55.602Z,975.49
2018-08-08T05:24:55.532Z,975.48
2018-08-08T05:25:55.460Z,975.47
2018-08-08T05:26:55.398Z,975.48
2018-08-08T05:27:55.323Z,975.52
2018-08-08T05:28:55.254Z,975.49
2018-08-08T05:29:55.182Z,975.48
2018-08-08T05:30:55.106Z,975.48
2018-08-08T05:31:55.037Z,975.49
2018-08-08T05:32:54.964Z,975.52
2018-08-08T05:33:54.895Z,975.49
2018-08-08T05:34:54.824Z,975.51
2018-08-08T05:35:54.752Z,975.47
2018-08-08T05:36:54.692Z,975.49
2018-08-08T05:37:54.616Z,975.45
2018-08-08T05:38:54.541Z,975.46
2018-08-08T05:39:54.471Z,975.47
2018-08-08T05:40:54.399Z,975.50
2018-08-08T05:41:54.331Z,975.50
2018-08-08T05:42:54.307Z,975.53
2018-08-08T05:43:54.193Z,975.53
2018-08-08T05:44:54.117Z,975.54
2018-08-08T05:45:54.048Z,975.51
2018-08-08T05:46:53.985Z,975.52
2018-08-08T05:47:53.916Z,975.53
2018-08-08T05:48:53.845Z,975.49
2018-08-08T05:49:53.765Z,975.51
2018-08-08T05:50:53.695Z,975.52
2018-08-08T05:51:53.631Z,975.56
2018-08-08T05:52:53.554Z,975.58
2018-08-08T05:53:53.487Z,975.61
2018-08-08T05:54:53.412Z,975.62
2018-08-08T05:55:53.341Z,975.62
2018-08-08T05:56:53.269Z,975.65
2018-08-08T05:57:53.208Z,975.64
2018-08-08T05:58:53.129Z,975.61
2018-08-08T05:59:53.057Z,975.65
2018-08-08T06:00:52.989Z,975.63
2018-08-08T06:01:52.916Z,975.67
2018-08-08T06:02:52.856Z,975.70
2018-08-08T06:03:52.776Z,975.68
2018-08-08T06:04:52.711Z,975.68
2018-08-08T06:05:52.634Z,975.72
2018-08-08T06:06:52.576Z,975.72
2018-08-08T06:07:52.494Z,975.78
2018-08-08T06:08:52.424Z,975.78
2018-08-08T06:09:52.353Z,975.80
2018-08-08T06:10:52.289Z,975.86
2018-08-08T06:11:52.220Z,975.85
2018-08-08T06:12:52.147Z,975.85
2018-08-08T06:13:52.073Z,975.88
2018-08-08T06:14:52.001Z,975.85
2018-08-08T06:15:51.934Z,975.85
2018-08-08T06:16:51.864Z,975.84
2018-08-08T06:17:51.797Z,975.84
2018-08-08T06:18:51.720Z,975.85
2018-08-08T06:19:51.653Z,975.86
2018-08-08T06:20:51.578Z,975.86
2018-08-08T06:21:51.507Z,975.87
2018-08-08T06:22:51.445Z,975.92
2018-08-08T06:23:51.378Z,975.95
2018-08-08T06:24:51.301Z,975.93
2018-08-08T06:25:51.287Z,975.94
2018-08-08T06:26:51.157Z,975.93
2018-08-08T06:27:51.134Z,975.93
2018-08-08T06:28:51.016Z,975.95
2018-08-08T06:29:50.955Z,975.94
2018-08-08T06:30:50.941Z,975.97
2018-08-08T06:31:50.811Z,976.01
2018-08-08T06:32:50.764Z,976.01
2018-08-08T06:33:50.731Z,976.05
2018-08-08T06:34:50.603Z,976.03
2018-08-08T06:35:50.525Z,976.05
2018-08-08T06:36:50.455Z,976.05
2018-08-08T06:37:50.389Z,976.04
2018-08-08T06:38:50.328Z,976.01
2018-08-08T06:39:50.245Z,976.00
2018-08-08T06:40:50.176Z,976.02
2018-08-08T06:41:50.122Z,976.02
2018-08-08T06:42:50.048Z,976.04
2018-08-08T06:43:50.033Z,976.05
2018-08-08T06:44:49.897Z,976.04
2018-08-08T06:47:21.885Z,976.00
2018-08-08T06:48:21.777Z,976.02
2018-08-08T06:50:26.127Z,976.01
2018-08-08T06:51:26.007Z,976.01
2018-08-08T06:53:29.868Z,976.01
2018-08-08T06:54:29.792Z,976.02
2018-08-08T06:56:34.142Z,976.08
2018-08-08T06:57:34.071Z,976.06
2018-08-08T06:59:38.380Z,976.05
2018-08-08T07:00:38.268Z,976.04
2018-08-08T07:02:42.128Z,976.08
2018-08-08T07:03:42.042Z,976.07
2018-08-08T07:05:45.940Z,976.12
2018-08-08T07:06:45.827Z,976.13
2018-08-08T07:07:45.752Z,976.14
2018-08-08T07:08:45.683Z,976.15
2018-08-08T07:09:45.626Z,976.15
2018-08-08T07:10:45.548Z,976.22
2018-08-08T07:11:45.474Z,976.27
2018-08-08T07:12:45.406Z,976.29
2018-08-08T07:13:45.337Z,976.37
2018-08-08T07:14:45.278Z,976.45
2018-08-08T07:15:45.195Z,976.53
2018-08-08T07:16:45.130Z,976.58
2018-08-08T07:17:45.063Z,976.62
2018-08-08T07:18:44.986Z,976.55
2018-08-08T07:19:45.004Z,976.49
2018-08-08T07:20:44.847Z,976.49
2018-08-08T07:21:44.789Z,976.47
2018-08-08T07:22:44.707Z,976.44
2018-08-08T07:23:44.644Z,976.39
2018-08-08T07:24:44.574Z,976.33
2018-08-08T07:25:44.508Z,976.36
2018-08-08T07:26:44.434Z,976.38
2018-08-08T07:27:44.362Z,976.43
2018-08-08T07:28:44.293Z,976.49
2018-08-08T07:29:44.230Z,976.52
2018-08-08T07:30:44.161Z,976.53
2018-08-08T07:31:44.085Z,976.55
2018-08-08T07:32:44.014Z,976.58
2018-08-08T07:33:43.945Z,976.58
2018-08-08T07:34:43.876Z,976.63
2018-08-08T07:35:43.809Z,976.69
2018-08-08T07:36:43.739Z,976.65
2018-08-08T07:37:43.671Z,976.63
2018-08-08T07:38:43.598Z,976.58
2018-08-08T07:39:43.541Z,976.57
2018-08-08T07:40:43.465Z,976.60
2018-08-08T07:41:43.393Z,976.56
2018-08-08T07:42:43.328Z,976.58
2018-08-08T07:43:43.253Z,976.58
2018-08-08T07:44:43.193Z,976.51
2018-08-08T07:45:43.138Z,976.53
2018-08-08T07:46:43.052Z,976.54
2018-08-08T07:47:42.976Z,976.56
2018-08-08T07:48:42.906Z,976.60
2018-08-08T07:49:42.837Z,976.60
2018-08-08T07:50:42.766Z,976.59
2018-08-08T07:51:42.702Z,976.60
2018-08-08T07:52:42.632Z,976.61
2018-08-08T07:53:42.560Z,976.59
2018-08-08T07:54:42.494Z,976.61
2018-08-08T07:55:42.426Z,976.62
2018-08-08T07:56:42.358Z,976.56
2018-08-08T07:57:42.307Z,976.54
2018-08-08T07:58:42.220Z,976.51
2018-08-08T07:59:42.148Z,976.48
2018-08-08T08:00:42.078Z,976.42
2018-08-08T08:01:42.010Z,976.39
2018-08-08T08:02:41.946Z,976.37
2018-08-08T08:03:41.874Z,976.33
2018-08-08T08:04:41.810Z,976.36
2018-08-08T08:05:41.739Z,976.33
2018-08-08T08:06:41.671Z,976.36
2018-08-08T08:07:41.597Z,976.37
2018-08-08T08:08:41.525Z,976.38
2018-08-08T08:09:41.461Z,976.37
2018-08-08T08:10:41.392Z,976.37
2018-08-08T08:11:41.318Z,976.40
2018-08-08T08:12:41.259Z,976.40
2018-08-08T08:13:41.189Z,976.40
2018-08-08T08:14:41.112Z,976.43
2018-08-08T08:15:41.045Z,976.47
2018-08-08T08:16:40.985Z,976.46
2018-08-08T08:17:40.913Z,976.48
2018-08-08T08:18:40.838Z,976.50
2018-08-08T08:19:40.773Z,976.46
2018-08-08T08:20:40.701Z,976.46
2018-08-08T08:21:40.645Z,976.44
2018-08-08T08:22:40.569Z,976.44
2018-08-08T08:23:40.496Z,976.46
2018-08-08T08:24:40.428Z,976.45
2018-08-08T08:25:40.364Z,976.44
2018-08-08T08:26:40.290Z,976.43
2018-08-08T08:27:40.226Z,976.46
2018-08-08T08:28:40.156Z,976.43
2018-08-08T08:29:40.089Z,976.45
2018-08-08T08:30:40.015Z,976.42
2018-08-08T08:31:39.951Z,976.41
2018-08-08T08:32:39.883Z,976.34
2018-08-08T08:33:39.810Z,976.33
2018-08-08T08:34:39.745Z,976.37
2018-08-08T08:35:39.671Z,976.40
2018-08-08T08:36:39.609Z,976.40
2018-08-08T08:37:39.538Z,976.40
2018-08-08T08:38:39.529Z,976.39
2018-08-08T08:39:39.404Z,976.40
2018-08-08T08:40:39.345Z,976.40
2018-08-08T08:41:39.263Z,976.38
2018-08-08T08:42:39.201Z,976.44
2018-08-08T08:43:39.176Z,976.41
2018-08-08T08:44:39.060Z,976.48
2018-08-08T08:45:38.988Z,976.49
2018-08-08T08:46:38.919Z,976.50
2018-08-08T08:47:38.853Z,976.54
2018-08-08T08:48:38.783Z,976.55
2018-08-08T08:49:38.719Z,976.49
2018-08-08T08:50:38.660Z,976.52
2018-08-08T08:51:38.586Z,976.52
2018-08-08T08:52:38.512Z,976.55
2018-08-08T08:53:38.448Z,976.54
2018-08-08T08:54:38.382Z,976.55
2018-08-08T08:55:38.306Z,976.58
2018-08-08T08:56:38.240Z,976.56
2018-08-08T08:57:38.176Z,976.63
2018-08-08T08:58:38.105Z,976.62
2018-08-08T08:59:38.040Z,976.68
2018-08-08T09:00:37.968Z,976.70
2018-08-08T09:01:37.901Z,976.69
2018-08-08T09:02:37.836Z,976.67
2018-08-08T09:03:37.768Z,976.69
2018-08-08T09:04:37.698Z,976.68
2018-08-08T09:05:37.637Z,976.79
2018-08-08T09:06:37.560Z,976.71
2018-08-08T09:07:37.494Z,976.68
2018-08-08T09:08:37.421Z,976.76
2018-08-08T09:09:37.357Z,976.71
2018-08-08T09:10:37.286Z,976.72
2018-08-08T09:11:37.219Z,976.80
2018-08-08T09:12:37.150Z,976.70
2018-08-08T09:13:37.084Z,976.82
2018-08-08T09:14:37.014Z,976.84
2018-08-08T09:15:36.947Z,976.85
2018-08-08T09:16:36.878Z,976.83
2018-08-08T09:17:36.819Z,976.83
2018-08-08T09:18:36.745Z,976.82
2018-08-08T09:19:36.677Z,976.87
2018-08-08T09:20:36.610Z,976.81
2018-08-08T09:21:36.543Z,976.80
2018-08-08T09:22:36.474Z,976.84
2018-08-08T09:23:36.424Z,976.84
2018-08-08T09:24:36.339Z,976.85
2018-08-08T09:25:36.276Z,976.85
2018-08-08T09:26:36.202Z,976.91
2018-08-08T09:27:36.133Z,976.86
2018-08-08T09:28:36.099Z,976.86
2018-08-08T09:29:35.998Z,976.83
2018-08-08T09:30:36.063Z,976.82
2018-08-08T09:31:35.863Z,976.87
2018-08-08T09:32:35.795Z,976.89
2018-08-08T09:33:35.726Z,976.89
2018-08-08T09:34:35.659Z,976.89
2018-08-08T09:35:35.590Z,976.85
2018-08-08T09:36:35.529Z,976.84
2018-08-08T09:37:35.458Z,976.87
2018-08-08T09:38:35.389Z,976.80
2018-08-08T09:39:35.321Z,976.76
2018-08-08T09:40:35.256Z,976.73
2018-08-08T09:41:35.184Z,976.71
2018-08-08T09:42:35.115Z,976.79
2018-08-08T09:43:35.052Z,976.84
2018-08-08T09:44:34.984Z,976.71
2018-08-08T09:45:34.920Z,976.70
2018-08-08T09:46:34.858Z,976.69
2018-08-08T09:47:34.794Z,976.70
2018-08-08T09:48:34.714Z,976.70
2018-08-08T09:49:34.645Z,976.66
2018-08-08T09:50:34.580Z,976.73
2018-08-08T09:51:34.518Z,976.82
2018-08-08T09:52:34.444Z,976.77
2018-08-08T09:53:34.378Z,976.77
2018-08-08T09:54:34.313Z,976.78
2018-08-08T09:55:34.298Z,976.77
2018-08-08T09:56:34.194Z,976.92
2018-08-08T09:57:34.107Z,976.86
2018-08-08T09:58:34.042Z,976.82
2018-08-08T09:59:33.993Z,976.76
2018-08-08T10:00:33.915Z,976.75
2018-08-08T10:01:33.844Z,976.76
2018-08-08T10:02:33.778Z,976.91
2018-08-08T10:03:33.780Z,976.74
2018-08-08T10:04:33.639Z,976.80
2018-08-08T10:05:33.574Z,976.74
2018-08-08T10:06:33.502Z,976.71
2018-08-08T10:07:33.441Z,976.73
2018-08-08T10:08:33.376Z,976.84
2018-08-08T10:09:33.314Z,976.83
2018-08-08T10:10:33.240Z,976.88
2018-08-08T10:11:33.173Z,976.89
2018-08-08T10:12:33.101Z,976.81
2018-08-08T10:13:33.039Z,976.83
2018-08-08T10:14:32.967Z,976.83
2018-08-08T10:15:32.910Z,976.91
2018-08-08T10:16:32.845Z,976.94
2018-08-08T10:17:32.777Z,976.96
2018-08-08T10:18:32.701Z,976.93
2018-08-08T10:19:32.636Z,976.88
2018-08-08T10:20:32.570Z,976.93
2018-08-08T10:21:32.503Z,976.93
2018-08-08T10:22:32.432Z,976.96
2018-08-08T10:23:32.369Z,977.03
2018-08-08T10:24:32.306Z,977.00
2018-08-08T10:25:32.243Z,977.01
2018-08-08T10:26:32.173Z,977.07
2018-08-08T10:27:32.100Z,977.05
2018-08-08T10:28:32.041Z,977.04
2018-08-08T10:29:31.967Z,977.00
2018-08-08T10:30:31.905Z,977.03
2018-08-08T10:31:31.894Z,977.04
2018-08-08T10:32:31.771Z,976.97
2018-08-08T10:33:31.739Z,976.94
2018-08-08T10:34:31.633Z,976.95
2018-08-08T10:35:31.574Z,977.07
2018-08-08T10:36:31.505Z,977.14
2018-08-08T10:37:31.434Z,977.09
2018-08-08T10:38:31.371Z,977.08
2018-08-08T10:39:31.300Z,977.07
2018-08-08T10:40:31.237Z,977.08
2018-08-08T10:41:31.175Z,977.02
2018-08-08T10:42:31.100Z,977.10
2018-08-08T10:43:31.041Z,977.13
2018-08-08T10:44:30.969Z,977.06
2018-08-08T10:45:30.906Z,977.04
2018-08-08T10:46:30.836Z,977.13
2018-08-08T10:47:30.769Z,977.07
2018-08-08T10:48:30.704Z,977.15
2018-08-08T10:49:30.641Z,977.18
2018-08-08T10:50:30.577Z,977.15
2018-08-08T10:51:30.507Z,977.17
2018-08-08T10:52:30.439Z,977.18
2018-08-08T10:53:30.373Z,977.10
2018-08-08T10:54:30.320Z,977.16
2018-08-08T10:55:30.252Z,977.14
2018-08-08T10:56:30.177Z,977.16
2018-08-08T10:57:30.114Z,977.20
2018-08-08T10:58:30.042Z,977.15
2018-08-08T10:59:30.017Z,977.24
2018-08-08T11:00:29.911Z,977.20
2018-08-08T11:01:29.924Z,977.15
2018-08-08T11:02:29.778Z,977.19
2018-08-08T11:03:29.712Z,977.24
2018-08-08T11:04:29.651Z,977.25
2018-08-08T11:05:29.584Z,977.20
2018-08-08T11:06:29.514Z,977.08
2018-08-08T11:07:29.448Z,977.11
2018-08-08T11:08:29.386Z,977.14
2018-08-08T11:09:29.320Z,977.08
2018-08-08T11:10:29.263Z,977.14
2018-08-08T11:11:29.189Z,977.16
2018-08-08T11:12:29.124Z,977.13
2018-08-08T11:13:29.056Z,977.14
2018-08-08T11:14:28.988Z,977.16
2018-08-08T11:15:28.927Z,977.13
2018-08-08T11:16:28.861Z,977.16
2018-08-08T11:17:28.799Z,977.16
2018-08-08T11:18:28.731Z,977.19
2018-08-08T11:19:28.667Z,977.16
2018-08-08T11:20:28.603Z,977.22
2018-08-08T11:21:28.533Z,977.16
2018-08-08T11:22:28.465Z,977.15
2018-08-08T11:23:28.398Z,977.25
2018-08-08T11:24:28.333Z,977.19
2018-08-08T11:25:28.267Z,977.25
2018-08-08T11:26:28.205Z,977.21
2018-08-08T11:27:28.135Z,977.24
2018-08-08T11:28:28.070Z,977.24
2018-08-08T11:29:28.016Z,977.21
2018-08-08T11:30:27.959Z,977.33
2018-08-08T11:31:27.872Z,977.27
2018-08-08T11:32:27.807Z,977.27
2018-08-08T11:33:27.746Z,977.20
2018-08-08T11:34:27.675Z,977.23
2018-08-08T11:35:27.609Z,977.23
2018-08-08T11:36:27.543Z,977.23
2018-08-08T11:37:27.479Z,977.23
2018-08-08T11:38:27.416Z,977.22
2018-08-08T11:39:27.351Z,977.27
2018-08-08T11:40:27.282Z,977.28
2018-08-08T11:41:27.220Z,977.30
2018-08-08T11:42:27.145Z,977.34
2018-08-08T11:43:27.081Z,977.29
2018-08-08T11:44:27.015Z,977.35
2018-08-08T11:45:26.946Z,977.33
2018-08-08T11:46:26.892Z,977.28
2018-08-08T11:47:26.816Z,977.21
2018-08-08T11:48:26.754Z,977.22
2018-08-08T11:49:26.688Z,977.28
2018-08-08T11:50:26.616Z,977.23
2018-08-08T11:51:26.565Z,977.25
2018-08-08T11:52:26.489Z,977.25
2018-08-08T11:53:26.414Z,977.25
2018-08-08T11:54:26.351Z,977.25
2018-08-08T11:55:26.305Z,977.23
2018-08-08T11:56:26.220Z,977.22
2018-08-08T11:57:26.169Z,977.26
2018-08-08T11:58:26.084Z,977.23
2018-08-08T11:59:26.018Z,977.17
2018-08-08T12:00:25.955Z,977.22
2018-08-08T12:01:25.884Z,977.14
2018-08-08T12:02:25.816Z,977.12
2018-08-08T12:03:25.752Z,977.10
2018-08-08T12:04:25.683Z,977.09
2018-08-08T12:05:25.630Z,977.07
2018-08-08T12:06:25.556Z,977.01
2018-08-08T12:07:25.488Z,977.01
2018-08-08T12:08:25.419Z,977.05
2018-08-08T12:09:25.353Z,977.05
2018-08-08T12:10:25.281Z,977.09
2018-08-08T12:11:25.214Z,977.07
2018-08-08T12:12:25.148Z,977.08
2018-08-08T12:13:25.084Z,977.03
2018-08-08T12:14:25.014Z,977.05
2018-08-08T12:15:24.948Z,977.08
2018-08-08T12:16:24.879Z,977.04
2018-08-08T12:17:24.812Z,977.08
2018-08-08T12:18:24.748Z,977.04
2018-08-08T12:19:24.679Z,977.04
2018-08-08T12:20:24.617Z,977.08
2018-08-08T12:21:24.545Z,977.02
2018-08-08T12:22:24.486Z,977.11
2018-08-08T12:23:24.429Z,977.04
2018-08-08T12:24:24.345Z,977.05
2018-08-08T12:25:24.278Z,977.04
2018-08-08T12:26:24.218Z,977.03
2018-08-08T12:27:24.145Z,977.13
2018-08-08T12:28:24.076Z,977.10
2018-08-08T12:29:24.023Z,977.10
2018-08-08T12:30:23.942Z,977.12
2018-08-08T12:31:23.898Z,977.12
2018-08-08T12:32:23.812Z,977.12
2018-08-08T12:33:23.749Z,977.14
2018-08-08T12:34:23.776Z,977.15
2018-08-08T12:35:23.691Z,977.20
2018-08-08T12:36:23.552Z,977.22
2018-08-08T12:37:23.486Z,977.17
2018-08-08T12:38:23.413Z,977.12
2018-08-08T12:39:23.419Z,977.15
2018-08-08T12:40:23.315Z,977.13